createdAt,value
2018-12-25T00:56:01.058Z,-0.20
2018-12-25T00:58:44.043Z,-0.20
2018-12-25T01:01:27.222Z,-0.20
2018-12-25T01:04:10.506Z,-0.30
2018-12-25T01:06:53.705Z,-0.30
2018-12-25T01:09:36.567Z,-0.40
2018-12-25T01:12:19.612Z,-0.50
2018-12-25T01:15:02.172Z,-0.50
2018-12-25T01:17:45.333Z,-0.50
2018-12-25T01:20:28.669Z,-0.50
2018-12-25T01:23:11.124Z,-0.50
2018-12-25T01:25:54.496Z,-0.60
2018-12-25T01:28:37.745Z,-0.60
2018-12-25T01:31:21.073Z,-0.60
2018-12-25T01:34:10.502Z,-0.60
2018-12-25T01:36:59.549Z,-0.70
2018-12-25T01:39:42.346Z,-0.60
2018-12-25T01:42:25.166Z,-0.70
2018-12-25T01:45:08.165Z,-0.70
2018-12-25T01:47:52.165Z,-0.70
2018-12-25T01:50:34.589Z,-0.80
2018-12-25T01:53:17.470Z,-0.80
2018-12-25T01:56:00.259Z,-0.80
2018-12-25T01:58:43.515Z,-0.90
2018-12-25T02:01:25.998Z,-0.80
2018-12-25T02:04:09.470Z,-0.80
2018-12-25T02:06:52.591Z,-0.80
2018-12-25T02:09:35.623Z,-0.80
2018-12-25T02:12:18.272Z,-0.90
2018-12-25T02:15:01.295Z,-0.90
2018-12-25T02:17:44.296Z,-1.00
2018-12-25T02:20:27.262Z,-1.10
2018-12-25T02:23:09.820Z,-1.00
2018-12-25T02:25:52.482Z,-0.90
2018-12-25T02:28:35.566Z,-0.80
2018-12-25T02:31:18.288Z,-0.80
2018-12-25T02:34:01.497Z,-0.70
2018-12-25T02:36:44.237Z,-0.70
2018-12-25T02:39:27.345Z,-0.80
2018-12-25T02:42:09.916Z,-0.70
2018-12-25T02:44:53.055Z,-0.80
2018-12-25T02:47:36.309Z,-0.80
2018-12-25T02:50:19.077Z,-0.80
2018-12-25T02:53:01.956Z,-0.90
2018-12-25T02:55:45.990Z,-0.80
2018-12-25T02:58:29.143Z,-0.80
2018-12-25T03:01:12.269Z,-0.90
2018-12-25T03:03:55.450Z,-0.90
2018-12-25T03:06:38.758Z,-0.90
2018-12-25T03:09:21.889Z,-1.00
2018-12-25T03:12:05.143Z,-1.00
2018-12-25T03:14:47.694Z,-1.10
2018-12-25T03:17:30.219Z,-1.00
2018-12-25T03:20:13.169Z,-1.10
2018-12-25T03:22:56.202Z,-1.10
2018-12-25T03:28:21.333Z,-1.20
2018-12-25T03:31:04.023Z,-1.20
2018-12-25T03:33:47.216Z,-1.20
2018-12-25T03:36:29.770Z,-1.20
2018-12-25T03:39:12.606Z,-1.30
2018-12-25T03:41:55.721Z,-1.30
2018-12-25T03:44:39.525Z,-1.30
2018-12-25T03:47:22.714Z,-1.30
2018-12-25T03:50:10.947Z,-1.30
2018-12-25T03:52:50.779Z,-1.30
2018-12-25T03:55:33.526Z,-1.30
2018-12-25T03:58:16.031Z,-1.40
2018-12-25T04:00:58.533Z,-1.40
2018-12-25T04:03:41.613Z,-1.40
2018-12-25T04:06:24.641Z,-1.50
2018-12-25T04:09:07.826Z,-1.60
2018-12-25T04:11:50.621Z,-1.60
2018-12-25T04:14:33.216Z,-1.50
2018-12-25T04:17:16.065Z,-1.50
2018-12-25T04:19:59.002Z,-1.50
2018-12-25T04:22:42.214Z,-1.50
2018-12-25T04:25:25.025Z,-1.50
2018-12-25T04:28:08.281Z,-1.40
2018-12-25T04:30:51.067Z,-1.40
2018-12-25T04:33:33.844Z,-1.30
2018-12-25T04:36:16.808Z,-1.20
2018-12-25T04:39:00.016Z,-1.20
2018-12-25T04:41:42.555Z,-1.00
2018-12-25T04:44:25.405Z,-1.00
2018-12-25T04:47:07.981Z,-1.00
2018-12-25T04:49:50.766Z,-0.80
2018-12-25T04:52:33.404Z,-0.80
2018-12-25T04:55:16.788Z,-0.70
2018-12-25T04:58:00.138Z,-0.70
2018-12-25T05:00:42.767Z,-0.60
2018-12-25T05:03:26.080Z,-0.70
2018-12-25T05:06:08.786Z,-0.70
2018-12-25T05:08:51.529Z,-0.60
2018-12-25T05:11:38.876Z,-0.60
2018-12-25T05:14:21.544Z,-0.70
2018-12-25T05:17:04.511Z,-0.70
2018-12-25T05:19:47.442Z,-0.70
2018-12-25T05:22:30.203Z,-0.70
2018-12-25T05:25:13.145Z,-0.70
2018-12-25T05:27:55.608Z,-1.00
2018-12-25T05:33:21.147Z,-0.90
2018-12-25T05:36:03.960Z,-0.80
2018-12-25T05:38:46.451Z,-0.70
2018-12-25T05:41:29.320Z,-0.70
2018-12-25T05:44:12.028Z,-0.70
2018-12-25T05:46:55.129Z,-0.70
2018-12-25T05:49:37.750Z,-0.90
2018-12-25T05:52:20.404Z,-0.80
2018-12-25T05:55:01.701Z,-0.90
2018-12-25T06:16:53.289Z,-1.00
2018-12-25T06:19:36.567Z,-1.10
2018-12-25T06:22:19.381Z,-1.20
2018-12-25T06:25:01.900Z,-1.20
2018-12-25T06:27:45.318Z,-1.30
2018-12-25T06:30:28.846Z,-1.40
2018-12-25T06:33:11.913Z,-1.40
2018-12-25T06:35:54.921Z,-1.40
2018-12-25T06:38:37.898Z,-1.40
2018-12-25T06:41:21.007Z,-1.40
2018-12-25T06:44:03.539Z,-1.40
2018-12-25T06:46:46.660Z,-1.40
2018-12-25T06:49:29.933Z,-1.50
2018-12-25T06:52:13.190Z,-1.50
2018-12-25T06:54:56.409Z,-1.60
2018-12-25T06:57:27.138Z,-1.60
2018-12-25T07:00:17.116Z,-1.70
2018-12-25T07:03:00.207Z,-1.70
2018-12-25T07:05:42.547Z,-1.70
2018-12-25T07:08:28.954Z,-1.80
2018-12-25T07:11:12.325Z,-1.80
2018-12-25T07:14:20.336Z,-1.80
2018-12-25T07:17:09.868Z,-1.80
2018-12-25T07:34:13.043Z,-1.80
2018-12-25T07:36:56.441Z,-1.80
2018-12-25T07:39:39.442Z,-1.90
2018-12-25T07:48:45.639Z,-1.90
2018-12-25T07:51:29.752Z,-2.00
2018-12-25T07:56:54.304Z,-1.90
2018-12-25T07:59:39.254Z,-1.80
2018-12-25T08:02:09.879Z,-1.80
2018-12-25T08:11:16.963Z,-1.80
2018-12-25T08:14:00.046Z,-1.70
2018-12-25T08:16:42.905Z,-1.60
2018-12-25T08:19:26.116Z,-1.60
2018-12-25T08:22:09.240Z,-1.70
2018-12-25T08:24:51.776Z,-1.60
2018-12-25T08:27:35.000Z,-1.60
2018-12-25T08:30:17.583Z,-1.50
2018-12-25T08:33:00.392Z,-1.50
2018-12-25T08:35:43.455Z,-1.50
2018-12-25T08:38:26.023Z,-1.40
2018-12-25T08:41:09.249Z,-1.40
2018-12-25T08:43:52.579Z,-1.60
2018-12-25T08:46:35.505Z,-1.50
2018-12-25T08:49:18.711Z,-1.40
2018-12-25T08:52:01.942Z,-1.30
2018-12-25T08:54:44.713Z,-1.40
2018-12-25T08:57:27.918Z,-1.40
2018-12-25T09:00:10.395Z,-1.50
2018-12-25T09:02:53.979Z,-1.40
2018-12-25T09:06:01.797Z,-1.40
2018-12-25T09:11:32.531Z,-1.50
2018-12-25T09:14:14.966Z,-1.60
2018-12-25T09:16:57.879Z,-1.50
2018-12-25T09:19:44.687Z,-1.50
2018-12-25T09:22:27.264Z,-1.20
2018-12-25T09:25:10.813Z,-1.50
2018-12-25T09:27:54.239Z,-1.50
2018-12-25T09:30:37.941Z,-1.50
2018-12-25T09:33:20.584Z,-1.50
2018-12-25T09:36:03.266Z,-1.50
2018-12-25T09:38:45.888Z,-1.50
2018-12-25T09:41:29.933Z,-1.40
2018-12-25T09:44:13.162Z,-1.20
2018-12-25T09:46:55.616Z,-1.40
2018-12-25T09:49:38.466Z,-1.40
2018-12-25T09:52:21.353Z,-1.70
2018-12-25T09:55:04.400Z,-1.60
2018-12-25T09:57:47.181Z,-1.50
2018-12-25T10:00:34.298Z,-1.40
2018-12-25T10:03:17.028Z,-1.40
2018-12-25T10:06:00.579Z,-1.40
2018-12-25T10:08:43.960Z,-1.60
2018-12-25T10:11:27.317Z,-1.60
2018-12-25T10:14:10.415Z,-1.50
2018-12-25T10:16:53.227Z,-1.40
2018-12-25T10:19:36.028Z,-1.00
2018-12-25T10:22:18.678Z,-0.80
2018-12-25T10:25:01.462Z,-1.10
2018-12-25T10:27:45.092Z,-1.20
2018-12-25T10:30:28.166Z,-1.30
2018-12-25T10:33:11.313Z,-1.10
2018-12-25T10:35:54.471Z,-1.10
2018-12-25T10:38:37.397Z,-1.10
2018-12-25T10:41:19.839Z,-1.00
2018-12-25T10:44:02.938Z,-0.90
2018-12-25T10:49:28.054Z,-0.50
2018-12-25T10:52:11.682Z,-0.60
2018-12-25T10:54:55.370Z,-1.00
2018-12-25T10:57:38.179Z,-1.10
2018-12-25T11:00:21.049Z,-0.60
2018-12-25T11:05:45.861Z,-0.30
2018-12-25T11:08:28.499Z,-0.10
2018-12-25T11:11:11.358Z,-0.20
2018-12-25T11:13:54.721Z,-0.20
2018-12-25T11:16:37.251Z,-0.10
2018-12-25T11:19:20.655Z,-0.20
2018-12-25T11:22:03.731Z,-0.30
2018-12-25T11:24:46.527Z,0.10
2018-12-25T11:27:29.943Z,-0.10
2018-12-25T11:30:13.613Z,-0.10
2018-12-25T11:32:56.079Z,-0.30
2018-12-25T11:35:38.674Z,-0.30
2018-12-25T11:38:22.120Z,-0.20
2018-12-25T11:41:05.582Z,-0.10
2018-12-25T11:43:48.810Z,-0.30
2018-12-25T11:46:31.672Z,-0.20
2018-12-25T11:49:14.796Z,-0.30
2018-12-25T11:51:57.710Z,-0.10
2018-12-25T11:54:40.841Z,-0.10
2018-12-25T11:57:23.416Z,-0.20
2018-12-25T12:00:13.396Z,-0.10
2018-12-25T12:03:02.165Z,-0.40
2018-12-25T12:05:51.186Z,-0.50
2018-12-25T12:08:34.749Z,-0.50
2018-12-25T12:11:18.582Z,-0.40
2018-12-25T12:14:01.470Z,-0.30
2018-12-25T12:16:44.824Z,-0.20
2018-12-25T12:19:28.125Z,-0.10
2018-12-25T12:22:11.254Z,-0.20
2018-12-25T12:24:53.828Z,0.00
2018-12-25T12:28:02.387Z,-0.10
2018-12-25T12:30:49.789Z,0.00
2018-12-25T12:33:32.268Z,0.00
2018-12-25T12:36:15.548Z,-0.10
2018-12-25T12:38:58.515Z,-0.20
2018-12-25T12:41:41.652Z,-0.10
2018-12-25T12:44:24.742Z,-0.10
2018-12-25T12:47:07.734Z,-0.20
2018-12-25T12:49:51.961Z,-0.40
2018-12-25T12:52:34.400Z,-0.20
2018-12-25T12:55:17.315Z,-0.70
2018-12-25T12:58:00.706Z,-0.80
2018-12-25T13:00:43.752Z,-0.60
2018-12-25T13:03:26.623Z,-0.60
2018-12-25T13:06:09.370Z,-0.40
2018-12-25T13:08:52.354Z,-0.10
2018-12-25T13:11:35.409Z,0.00
2018-12-25T13:14:18.109Z,0.00
2018-12-25T13:17:01.229Z,0.10
2018-12-25T13:19:43.889Z,-0.20
2018-12-25T13:22:26.816Z,-0.10
2018-12-25T13:25:09.568Z,-0.50
2018-12-25T13:27:53.323Z,-0.30
2018-12-25T13:30:37.743Z,-0.20
2018-12-25T13:33:20.967Z,-0.20
2018-12-25T13:35:51.769Z,-0.20
2018-12-25T13:45:27.328Z,0.10
2018-12-25T13:48:17.620Z,-0.30
2018-12-25T13:51:00.568Z,-0.40
2018-12-25T13:55:38.813Z,0.00
2018-12-25T13:58:22.518Z,-0.20
2018-12-25T14:01:05.206Z,-0.40
2018-12-25T14:03:47.726Z,-0.30
2018-12-25T14:06:30.356Z,-0.30
2018-12-25T14:09:12.813Z,-0.30
2018-12-25T14:11:55.536Z,-0.20
2018-12-25T14:15:03.602Z,-0.30
2018-12-25T14:18:11.648Z,-0.30
2018-12-25T14:21:20.351Z,-0.40
2018-12-25T14:24:03.022Z,-0.30
2018-12-25T14:26:46.680Z,-0.30
2018-12-25T14:29:29.125Z,-0.10
2018-12-25T14:32:12.289Z,0.00
2018-12-25T14:34:55.710Z,-0.40
2018-12-25T14:37:38.406Z,-0.40
2018-12-25T14:40:36.120Z,-0.40
2018-12-25T14:43:06.745Z,-0.20
2018-12-25T14:45:37.262Z,-0.20
2018-12-25T14:48:07.817Z,-0.40
2018-12-25T14:50:38.265Z,-0.50
2018-12-25T14:53:08.864Z,-0.50
2018-12-25T14:55:39.397Z,-0.40
2018-12-25T14:58:09.932Z,-0.40
2018-12-25T15:00:40.451Z,-0.40
2018-12-25T15:03:10.966Z,-0.40
2018-12-25T15:05:53.889Z,-0.30
2018-12-25T15:08:37.118Z,-0.60
2018-12-25T15:11:19.456Z,-0.50
2018-12-25T15:14:02.677Z,-0.50
2018-12-25T15:16:45.299Z,-0.70
2018-12-25T15:19:28.170Z,-0.70
2018-12-25T15:22:12.459Z,-0.70
2018-12-25T15:24:43.020Z,-0.60
2018-12-25T15:27:25.328Z,-0.60
2018-12-25T15:30:08.082Z,-0.70
2018-12-25T15:32:50.469Z,-0.70
2018-12-25T15:35:33.083Z,-0.70
2018-12-25T15:38:16.292Z,-0.80
2018-12-25T15:40:59.436Z,-0.90
2018-12-25T15:43:42.471Z,-0.80
2018-12-25T15:46:24.911Z,-0.80
2018-12-25T15:49:08.218Z,-0.80
2018-12-25T15:51:50.725Z,-0.80
2018-12-25T15:54:33.878Z,-0.90
2018-12-25T15:57:17.653Z,-0.90
2018-12-25T16:00:00.587Z,-0.90
2018-12-25T16:02:43.922Z,-1.00
2018-12-25T16:05:26.918Z,-0.90
2018-12-25T16:08:09.447Z,-1.00
2018-12-25T16:10:52.335Z,-1.00
2018-12-25T16:13:35.899Z,-1.00
2018-12-25T16:16:18.251Z,-0.90
2018-12-25T16:18:49.095Z,-0.90
2018-12-25T16:21:38.972Z,-0.90
2018-12-25T16:24:27.299Z,-1.00
2018-12-25T16:27:06.837Z,-0.90
2018-12-25T16:29:49.587Z,-1.00
2018-12-25T16:32:32.737Z,-1.10
2018-12-25T16:35:16.030Z,-1.10
2018-12-25T16:37:59.579Z,-1.10
2018-12-25T16:40:42.708Z,-1.10
2018-12-25T16:43:26.034Z,-1.10
2018-12-25T16:46:09.086Z,-1.10
2018-12-25T16:48:39.818Z,-1.20
2018-12-25T16:51:10.349Z,-1.20
2018-12-25T16:53:53.921Z,-1.20
2018-12-25T16:56:36.977Z,-1.20
2018-12-25T16:59:19.352Z,-1.30
2018-12-25T17:02:01.993Z,-1.30
2018-12-25T17:04:44.771Z,-1.30
2018-12-25T17:07:15.308Z,-1.30
2018-12-25T17:10:06.160Z,-1.20
2018-12-25T17:13:15.730Z,-1.10
2018-12-25T17:15:58.171Z,-1.20
2018-12-25T17:18:41.023Z,-1.30
2018-12-25T17:21:24.036Z,-1.30
2018-12-25T17:24:06.365Z,-1.30
2018-12-25T17:26:49.092Z,-1.40
2018-12-25T17:29:31.985Z,-1.40
2018-12-25T17:32:14.511Z,-1.50
2018-12-25T17:34:57.206Z,-1.40
2018-12-25T17:37:39.550Z,-1.40
2018-12-25T17:40:22.643Z,-1.40
2018-12-25T17:43:05.262Z,-1.50
2018-12-25T17:45:47.988Z,-1.50
2018-12-25T17:48:30.491Z,-1.40
2018-12-25T17:51:13.071Z,-1.50
2018-12-25T17:53:55.482Z,-1.40
2018-12-25T17:56:38.194Z,-1.50
2018-12-25T17:59:21.352Z,-1.50
2018-12-25T18:02:04.810Z,-1.50
2018-12-25T18:04:47.991Z,-1.50
2018-12-25T18:07:30.350Z,-1.50
2018-12-25T18:10:13.699Z,-1.50
2018-12-25T18:12:56.020Z,-1.50
2018-12-25T18:15:38.596Z,-1.40
2018-12-25T18:18:21.545Z,-1.40
2018-12-25T18:21:04.618Z,-1.50
2018-12-25T18:23:47.544Z,-1.50
2018-12-25T18:26:30.524Z,-1.50
2018-12-25T18:29:14.257Z,-1.40
2018-12-25T18:31:56.889Z,-1.40
2018-12-25T18:34:40.641Z,-1.40
2018-12-25T18:37:23.907Z,-1.50
2018-12-25T18:40:06.399Z,-1.40
2018-12-25T18:42:49.858Z,-1.40
2018-12-25T18:45:32.719Z,-1.40
2018-12-25T18:48:15.247Z,-1.40
2018-12-25T18:50:58.375Z,-1.60
2018-12-25T18:53:41.478Z,-1.50
2018-12-25T18:56:23.974Z,-1.70
2018-12-25T18:59:07.040Z,-1.70
2018-12-25T19:01:49.459Z,-1.70
2018-12-25T19:04:32.919Z,-1.60
2018-12-25T19:07:15.385Z,-1.50
2018-12-25T19:09:58.194Z,-1.50
2018-12-25T19:12:40.561Z,-1.40
2018-12-25T19:15:23.047Z,-1.40
2018-12-25T19:18:05.695Z,-1.40
2018-12-25T19:20:48.320Z,-1.40
2018-12-25T19:23:32.510Z,-1.40
2018-12-25T19:26:15.845Z,-1.40
2018-12-25T19:28:58.371Z,-1.30
2018-12-25T19:31:40.890Z,-1.40
2018-12-25T19:34:24.110Z,-1.30
2018-12-25T19:37:07.165Z,-1.20
2018-12-25T19:39:49.838Z,-1.30
2018-12-25T19:42:32.422Z,-1.30
2018-12-25T19:45:16.197Z,-1.30
2018-12-25T19:47:59.922Z,-1.20
2018-12-25T19:50:43.167Z,-1.10
2018-12-25T19:53:25.664Z,-1.00
2018-12-25T19:56:08.111Z,-1.00
2018-12-25T19:58:50.460Z,-1.00
2018-12-25T20:01:32.902Z,-1.10
2018-12-25T20:04:15.114Z,-1.10
2018-12-25T20:06:57.653Z,-1.20
2018-12-25T20:09:40.627Z,-1.00
2018-12-25T20:12:23.069Z,-1.00
2018-12-25T20:15:06.108Z,-0.90
2018-12-25T20:17:50.245Z,-0.90
2018-12-25T20:20:32.825Z,-0.90
2018-12-25T20:23:15.266Z,-0.90
2018-12-25T20:25:57.833Z,-0.80
2018-12-25T20:28:43.641Z,-0.80
2018-12-25T20:31:52.905Z,-0.80
2018-12-25T20:34:35.415Z,-0.80
2018-12-25T20:37:18.698Z,-0.70
2018-12-25T20:40:01.110Z,-0.70
2018-12-25T20:42:44.054Z,-0.70
2018-12-25T20:45:27.238Z,-0.70
2018-12-25T20:48:09.781Z,-0.70
2018-12-25T20:50:53.176Z,-0.70
2018-12-25T20:53:36.380Z,-0.60
2018-12-25T20:56:19.096Z,-0.60
2018-12-25T20:59:01.745Z,-0.60
2018-12-25T21:01:45.388Z,-0.50
2018-12-25T21:04:28.219Z,-0.50
2018-12-25T21:07:10.592Z,-0.50
2018-12-25T21:09:53.751Z,-0.70
2018-12-25T21:12:36.298Z,-0.70
2018-12-25T21:15:18.657Z,-0.70
2018-12-25T21:18:01.413Z,-0.60
2018-12-25T21:20:44.066Z,-0.60
2018-12-25T21:23:27.221Z,-0.60
2018-12-25T21:26:10.020Z,-0.60
2018-12-25T21:28:53.133Z,-0.60
2018-12-25T21:31:35.481Z,-0.60
2018-12-25T21:34:18.502Z,-0.60
2018-12-25T21:37:01.174Z,-0.60
2018-12-25T21:39:43.748Z,-0.60
2018-12-25T21:42:26.595Z,-0.60
2018-12-25T21:45:09.751Z,-0.50
2018-12-25T21:47:52.841Z,-0.50
2018-12-25T21:50:35.845Z,-0.50
2018-12-25T21:53:19.021Z,-0.40
2018-12-25T21:56:02.369Z,-0.40
2018-12-25T21:58:45.654Z,-0.50
2018-12-25T22:01:28.438Z,-0.40
2018-12-25T22:04:12.541Z,-0.30
2018-12-25T22:06:55.112Z,-0.30
2018-12-25T22:09:37.507Z,-0.30
2018-12-25T22:12:21.792Z,-0.20
2018-12-25T22:15:04.071Z,-0.20
2018-12-25T22:17:46.721Z,-0.20
2018-12-25T22:20:29.361Z,-0.20
2018-12-25T22:23:12.514Z,-0.10
2018-12-25T22:28:37.000Z,-0.20
2018-12-25T22:31:19.442Z,-0.20
2018-12-25T22:34:01.839Z,-0.20
2018-12-25T22:36:44.423Z,-0.30
2018-12-25T22:39:26.775Z,-0.30
2018-12-25T22:42:09.564Z,-0.20
2018-12-25T22:44:53.562Z,-0.20
2018-12-25T22:47:36.611Z,-0.30
2018-12-25T22:50:19.041Z,-0.30
2018-12-25T22:53:01.979Z,-0.20
2018-12-25T22:55:45.008Z,-0.20
2018-12-25T22:58:27.634Z,-0.30
2018-12-25T23:01:11.339Z,-0.30
2018-12-25T23:03:55.619Z,-0.20
2018-12-25T23:06:38.741Z,-0.20
2018-12-25T23:09:21.742Z,-0.10
2018-12-25T23:12:04.643Z,-0.20
2018-12-25T23:14:47.091Z,-0.30
2018-12-25T23:17:30.129Z,-0.30
2018-12-25T23:20:13.508Z,-0.30
2018-12-25T23:22:56.798Z,-0.20
2018-12-25T23:25:44.539Z,-0.10
2018-12-25T23:28:24.109Z,-0.20
2018-12-25T23:31:07.380Z,-0.10
2018-12-25T23:33:50.381Z,-0.10
2018-12-25T23:36:33.534Z,-0.10
2018-12-25T23:39:17.091Z,-0.10
2018-12-25T23:41:59.551Z,-0.10
2018-12-25T23:44:42.888Z,-0.10
2018-12-25T23:47:26.237Z,-0.10
2018-12-25T23:50:08.793Z,-0.20
2018-12-25T23:52:51.782Z,-0.20
2018-12-25T23:55:34.406Z,-0.10
2018-12-25T23:58:16.769Z,-0.20
